Time;durP1;ratioP1;P1;durP2;ratioP2;P2;SDS_P1;SDS_P2;PMS_P1;PMS_P2;Temp;Humidity;BMP_temperature;BMP_pressure;BME280_temperature;BME280_humidity;BME280_pressure;Samples;Min_cycle;Max_cycle;Signal;HPM_P1;HPM_P2
2021/08/10 00:02:03;;;;;;;5.80;5.50;;;;;;;14.08;93.25;101221.62;4419129;32;20078;-66
2021/08/10 00:04:28;;;;;;;4.82;4.62;;;;;;;13.94;93.17;101196.03;4429416;32;20783;-66
2021/08/10 00:06:54;;;;;;;4.90;4.70;;;;;;;14.02;93.68;101205.31;4416443;32;20162;-65
2021/08/10 00:09:19;;;;;;;4.78;4.57;;;;;;;13.93;93.80;101215.47;4435442;32;20605;-65
2021/08/10 00:11:45;;;;;;;4.62;4.43;;;;;;;13.86;93.62;101213.28;4425166;32;20185;-66
2021/08/10 00:14:10;;;;;;;4.90;4.70;;;;;;;13.77;94.12;101214.62;4429121;32;20072;-65
2021/08/10 00:16:36;;;;;;;4.85;4.65;;;;;;;13.68;93.95;101216.03;4422204;32;20090;-66
2021/08/10 00:19:01;;;;;;;4.75;4.55;;;;;;;12.34;94.06;101002.09;4413830;32;20752;-66
2021/08/10 00:21:27;;;;;;;4.90;4.70;;;;;;;13.57;94.08;101215.78;4434810;32;20550;-66
2021/08/10 00:23:52;;;;;;;5.45;5.25;;;;;;;13.51;94.33;101222.25;4427786;32;20145;-66
2021/08/10 00:26:17;;;;;;;5.10;4.90;;;;;;;13.43;94.15;101213.94;4432563;32;20919;-65
2021/08/10 00:28:43;;;;;;;6.82;6.53;;;;;;;13.39;94.08;101220.31;4432862;32;20068;-65
2021/08/10 00:31:08;;;;;;;4.85;4.65;;;;;;;13.35;94.29;101219.63;4418601;32;20064;-66
2021/08/10 00:33:33;;;;;;;5.00;4.80;;;;;;;13.32;94.30;101218.94;4429266;32;20573;-65
2021/08/10 00:35:59;;;;;;;4.53;4.32;;;;;;;13.31;95.22;101214.59;4423093;32;20080;-65
2021/08/10 00:38:25;;;;;;;5.00;4.80;;;;;;;13.30;95.16;101220.81;4427904;32;20072;-65
2021/08/10 00:40:50;;;;;;;4.93;4.72;;;;;;;12.17;95.04;101044.28;4418691;32;20167;-65
2021/08/10 00:43:34;;;;;;;4.80;4.60;;;;;;;12.70;95.11;101140.56;4423070;32;20083;-65
2021/08/10 00:46:00;;;;;;;5.90;5.60;;;;;;;10.98;94.96;100857.69;4438698;32;21260;-66
2021/08/10 00:48:25;;;;;;;4.80;4.60;;;;;;;13.12;95.51;101220.00;4416795;32;20234;-65
2021/08/10 00:50:50;;;;;;;4.68;4.47;;;;;;;13.09;94.93;101212.25;4410292;32;20167;-65
2021/08/10 00:53:16;;;;;;;4.90;4.70;;;;;;;13.05;94.89;101213.34;4421829;32;20083;-65
2021/08/10 00:55:41;;;;;;;6.40;6.10;;;;;;;13.03;94.79;101218.72;4400069;32;20060;-65
2021/08/10 00:58:06;;;;;;;4.60;4.40;;;;;;;13.00;94.84;101210.97;4405978;32;20771;-66
2021/08/10 01:00:32;;;;;;;5.45;5.20;;;;;;;13.01;95.08;101215.31;4418552;32;20079;-66
2021/08/10 01:02:57;;;;;;;4.70;4.50;;;;;;;12.98;95.12;101218.09;4406575;32;20113;-66
2021/08/10 01:05:23;;;;;;;4.90;4.70;;;;;;;12.96;95.00;101212.06;4409098;32;20107;-66
2021/08/10 01:07:53;;;;;;;5.32;5.12;;;;;;;12.94;95.16;101208.66;4400949;32;20444;-66
2021/08/10 01:10:30;;;;;;;4.78;4.57;;;;;;;12.39;95.41;101125.59;4425284;32;20915;-66
2021/08/10 01:12:55;;;;;;;4.90;4.70;;;;;;;12.93;95.22;101209.63;4420535;32;20068;-66
2021/08/10 01:15:24;;;;;;;4.82;4.62;;;;;;;12.94;95.58;101211.31;4435368;32;20076;-66
2021/08/10 01:18:01;;;;;;;5.47;5.28;;;;;;;12.93;96.07;101214.88;4417941;32;20545;-66
2021/08/10 01:20:45;;;;;;;4.78;4.57;;;;;;;12.96;96.17;101212.91;4404622;32;20518;-66
2021/08/10 01:23:11;;;;;;;4.78;4.57;;;;;;;12.86;96.51;101198.53;4427538;32;20071;-66
2021/08/10 01:26:01;;;;;;;4.80;4.60;;;;;;;12.99;96.66;101214.56;4402414;32;21131;-66
2021/08/10 01:29:07;;;;;;;4.80;4.60;;;;;;;12.99;96.60;101209.28;4433848;32;20064;-66
2021/08/10 01:31:36;;;;;;;5.30;5.07;;;;;;;13.01;96.75;101206.53;4419101;32;20090;-66
2021/08/10 01:34:10;;;;;;;4.50;4.30;;;;;;;12.82;96.95;101175.09;4403283;32;20087;-66
2021/08/10 01:36:36;;;;;;;6.22;5.93;;;;;;;13.07;96.94;101198.31;4419477;32;20578;-67
2021/08/10 01:39:02;;;;;;;4.80;4.60;;;;;;;13.12;97.02;101198.91;4402779;32;20852;-66
2021/08/10 01:41:27;;;;;;;4.80;4.60;;;;;;;13.14;97.37;101189.16;4416815;32;20057;-66
2021/08/10 01:43:53;;;;;;;4.78;4.57;;;;;;;13.22;97.10;101186.09;4416566;32;20088;-66
2021/08/10 01:46:21;;;;;;;5.00;4.80;;;;;;;13.27;97.01;101181.41;4418609;32;20107;-66
2021/08/10 01:48:46;;;;;;;6.65;6.35;;;;;;;13.31;96.85;101188.22;4412578;32;20166;-67
2021/08/10 01:51:11;;;;;;;4.70;4.50;;;;;;;13.33;97.02;101174.03;4447904;32;20074;-66
2021/08/10 01:53:37;;;;;;;4.80;4.60;;;;;;;13.40;96.94;101181.59;4427538;32;20104;-66
2021/08/10 01:56:03;;;;;;;4.80;4.60;;;;;;;13.43;96.89;101178.78;4421314;32;20099;-66
2021/08/10 01:58:28;;;;;;;4.87;4.68;;;;;;;13.45;96.78;101174.28;4435060;32;20857;-66
2021/08/10 02:00:54;;;;;;;4.95;4.75;;;;;;;13.47;96.61;101173.28;4416775;32;20082;-66
2021/08/10 02:03:19;;;;;;;4.70;4.50;;;;;;;13.31;96.27;101140.78;4420764;32;20064;-66
2021/08/10 02:05:45;;;;;;;4.53;4.32;;;;;;;13.47;96.17;101169.75;4426215;32;20078;-66
2021/08/10 02:08:11;;;;;;;4.70;4.50;;;;;;;13.47;96.30;101165.37;4430471;32;20084;-66
2021/08/10 02:10:37;;;;;;;5.97;5.68;;;;;;;13.49;96.20;101165.25;4431122;32;20083;-66
2021/08/10 02:13:02;;;;;;;4.80;4.60;;;;;;;13.48;96.28;101169.69;4415081;32;20094;-66
2021/08/10 02:15:27;;;;;;;4.60;4.40;;;;;;;13.48;95.94;101167.03;4435706;32;20061;-66
2021/08/10 02:17:53;;;;;;;4.80;4.60;;;;;;;13.49;96.12;101173.16;4421465;32;20088;-66
2021/08/10 02:20:18;;;;;;;5.25;4.90;;;;;;;13.46;96.37;101163.66;4435251;32;20819;-66
2021/08/10 02:22:46;;;;;;;5.00;4.80;;;;;;;13.48;96.29;101172.31;4428984;32;20101;-66
2021/08/10 02:25:12;;;;;;;5.07;4.80;;;;;;;13.50;96.00;101175.72;4432138;32;20107;-66
2021/08/10 02:27:53;;;;;;;6.20;5.90;;;;;;;13.54;95.94;101194.84;4422689;32;20072;-66
2021/08/10 02:30:20;;;;;;;4.85;4.65;;;;;;;13.60;96.10;101188.38;4448770;32;20764;-66
2021/08/10 02:32:46;;;;;;;4.60;4.40;;;;;;;13.02;96.39;101098.44;4422092;32;20078;-66
2021/08/10 02:35:12;;;;;;;4.60;4.40;;;;;;;13.61;95.81;101185.66;4437353;32;20056;-66
2021/08/10 02:37:37;;;;;;;4.45;4.25;;;;;;;13.65;95.92;101187.19;4416269;32;20075;-66
2021/08/10 02:40:05;;;;;;;4.60;4.40;;;;;;;13.68;96.25;101191.44;4418417;32;20657;-66
2021/08/10 02:42:31;;;;;;;4.68;4.47;;;;;;;13.72;96.14;101199.06;4432925;32;20491;-66
2021/08/10 02:44:56;;;;;;;4.70;4.50;;;;;;;13.75;95.93;101193.63;4433528;32;20075;-66
2021/08/10 02:47:23;;;;;;;4.70;4.50;;;;;;;13.76;95.75;101197.13;4439173;32;20075;-66
2021/08/10 02:49:48;;;;;;;6.43;6.12;;;;;;;13.61;95.47;101179.53;4429205;32;20067;-66
2021/08/10 02:52:14;;;;;;;4.72;4.53;;;;;;;13.77;95.82;101207.59;4434056;32;20485;-66
2021/08/10 02:54:39;;;;;;;4.72;4.53;;;;;;;13.79;95.70;101210.16;4439412;32;20132;-67
2021/08/10 02:57:22;;;;;;;4.50;4.30;;;;;;;13.83;95.04;101218.72;4415726;32;20206;-66
2021/08/10 02:59:50;;;;;;;6.55;6.25;;;;;;;13.86;95.27;101235.22;4441151;32;20070;-66
2021/08/10 03:02:19;;;;;;;4.60;4.40;;;;;;;13.90;95.85;101254.37;4426353;32;20087;-66
2021/08/10 03:04:55;;;;;;;4.68;4.47;;;;;;;14.00;94.92;101249.41;4434215;32;20064;-66
2021/08/10 03:07:21;;;;;;;4.60;4.40;;;;;;;14.04;94.61;101243.03;4435454;32;20108;-66
2021/08/10 03:09:46;;;;;;;6.75;6.45;;;;;;;14.08;92.96;101257.75;4433734;32;20087;-66
2021/08/10 03:12:12;;;;;;;4.70;4.50;;;;;;;14.11;92.79;101262.81;4428559;32;20082;-66
2021/08/10 03:14:37;;;;;;;6.28;5.97;;;;;;;13.07;92.85;101091.16;4433949;32;20064;-66
2021/08/10 03:17:03;;;;;;;4.40;4.20;;;;;;;14.12;92.95;101267.19;4429325;32;20069;-66
2021/08/10 03:19:29;;;;;;;4.70;4.50;;;;;;;13.96;92.88;101238.19;4419689;32;20074;-66
2021/08/10 03:21:54;;;;;;;5.00;4.80;;;;;;;14.14;92.70;101273.22;4419708;32;20064;-66
2021/08/10 03:24:20;;;;;;;4.68;4.47;;;;;;;13.71;93.05;101207.94;4432879;32;20102;-66
2021/08/10 03:26:45;;;;;;;6.65;6.35;;;;;;;14.13;93.14;101280.28;4428311;32;20072;-65
2021/08/10 03:29:10;;;;;;;4.47;4.28;;;;;;;14.12;92.93;101269.81;4423324;32;20067;-66
2021/08/10 03:31:38;;;;;;;6.10;5.80;;;;;;;14.10;92.96;101269.06;4430716;32;20598;-66
2021/08/10 03:34:03;;;;;;;4.35;4.15;;;;;;;14.10;92.97;101271.69;4422589;32;20076;-66
2021/08/10 03:36:28;;;;;;;4.80;4.60;;;;;;;14.06;93.01;101280.75;4420254;32;20067;-66
2021/08/10 03:38:56;;;;;;;4.62;4.43;;;;;;;14.05;92.82;101273.75;4416691;32;20064;-66
2021/08/10 03:41:22;;;;;;;4.50;4.30;;;;;;;14.01;93.52;101278.38;4435297;32;20581;-65
2021/08/10 03:43:48;;;;;;;6.75;6.45;;;;;;;13.87;93.67;101243.97;4416640;32;20194;-66
2021/08/10 03:46:13;;;;;;;4.60;4.40;;;;;;;14.02;93.60;101271.28;4419605;32;20534;-66
2021/08/10 03:48:42;;;;;;;6.32;6.03;;;;;;;14.00;93.43;101270.53;4434110;32;20082;-66
2021/08/10 03:51:08;;;;;;;4.50;4.30;;;;;;;13.98;93.79;101264.50;4421519;32;20064;-65
2021/08/10 03:53:34;;;;;;;5.43;5.18;;;;;;;13.99;93.86;101252.97;4436642;32;20083;-66
2021/08/10 03:56:00;;;;;;;4.50;4.30;;;;;;;13.97;93.62;101242.50;4420948;32;20134;-66
2021/08/10 03:58:25;;;;;;;4.70;4.50;;;;;;;13.93;93.37;101231.31;4420539;32;20589;-67
2021/08/10 04:00:51;;;;;;;4.80;4.60;;;;;;;13.75;93.32;101203.31;4434420;32;20080;-66
2021/08/10 04:03:16;;;;;;;4.45;4.25;;;;;;;13.88;93.78;101220.16;4424853;32;20063;-66
2021/08/10 04:05:45;;;;;;;4.60;4.40;;;;;;;13.84;93.64;101223.06;4428438;32;20099;-66
2021/08/10 04:08:11;;;;;;;4.50;4.30;;;;;;;13.49;93.14;101152.94;4437798;32;20072;-66
2021/08/10 04:10:40;;;;;;;4.60;4.40;;;;;;;13.82;93.43;101217.03;4422951;32;20095;-66
2021/08/10 04:13:08;;;;;;;4.72;4.53;;;;;;;13.80;93.48;101217.09;4428440;32;20071;-66
2021/08/10 04:15:33;;;;;;;4.60;4.40;;;;;;;13.57;93.48;101178.88;4429508;32;20084;-66
2021/08/10 04:17:58;;;;;;;4.60;4.40;;;;;;;13.77;93.52;101201.44;4423455;32;20824;-66
2021/08/10 04:20:24;;;;;;;4.53;4.32;;;;;;;13.71;93.38;101199.16;4437489;32;20072;-66
2021/08/10 04:22:49;;;;;;;5.35;5.15;;;;;;;13.56;93.98;101190.34;4430515;32;20068;-67
2021/08/10 04:25:14;;;;;;;5.47;5.10;;;;;;;13.44;94.01;101202.44;4427701;32;20698;-67
2021/08/10 04:27:40;;;;;;;6.22;5.93;;;;;;;13.37;94.24;101182.63;4437335;32;20075;-67
2021/08/10 04:30:06;;;;;;;4.50;4.30;;;;;;;13.30;94.78;101189.19;4423196;32;20072;-66
2021/08/10 04:32:31;;;;;;;4.80;4.60;;;;;;;13.26;94.88;101180.56;4433027;32;20082;-67
2021/08/10 04:34:58;;;;;;;4.60;4.40;;;;;;;13.09;95.18;101152.50;4430029;32;21169;-67
2021/08/10 04:37:23;;;;;;;4.60;4.40;;;;;;;13.14;95.17;101165.44;4429746;32;20659;-67
2021/08/10 04:39:49;;;;;;;5.87;5.57;;;;;;;13.25;95.51;101186.78;4434365;32;20068;-67
2021/08/10 04:42:14;;;;;;;4.53;4.32;;;;;;;13.32;95.48;101193.41;4432957;32;20149;-67
2021/08/10 04:44:39;;;;;;;6.35;6.05;;;;;;;13.21;95.78;101173.84;4420835;32;20079;-67
2021/08/10 04:47:05;;;;;;;4.60;4.40;;;;;;;13.28;95.59;101188.38;4422185;32;20064;-67
2021/08/10 04:49:30;;;;;;;4.65;4.37;;;;;;;13.27;95.66;101194.56;4434024;32;20144;-68
2021/08/10 04:51:56;;;;;;;4.47;4.28;;;;;;;13.27;95.83;101195.44;4422335;32;20102;-67
2021/08/10 04:54:21;;;;;;;4.65;4.45;;;;;;;12.97;95.95;101153.19;4438018;32;20067;-67
2021/08/10 04:56:46;;;;;;;6.37;6.07;;;;;;;13.28;95.83;101206.84;4429768;32;20870;-67
2021/08/10 04:59:12;;;;;;;4.60;4.40;;;;;;;13.32;96.39;101211.03;4437755;32;20141;-67
2021/08/10 05:01:39;;;;;;;6.55;6.25;;;;;;;13.45;96.57;101227.00;4423359;32;20086;-67
2021/08/10 05:04:04;;;;;;;4.70;4.50;;;;;;;13.64;96.59;101222.41;4431361;32;20068;-66
2021/08/10 05:06:30;;;;;;;4.65;4.45;;;;;;;13.88;96.31;101222.78;4428266;32;21073;-68
2021/08/10 05:08:55;;;;;;;4.93;4.65;;;;;;;14.31;96.60;101230.84;4416422;32;20091;-67
2021/08/10 05:11:20;;;;;;;4.90;4.70;;;;;;;14.88;95.59;101227.44;4431330;32;20072;-67
2021/08/10 05:13:46;;;;;;;6.72;6.43;;;;;;;15.41;94.25;101225.00;4431298;32;20068;-67
2021/08/10 05:16:11;;;;;;;4.80;4.60;;;;;;;15.93;91.29;101239.31;4429261;32;20099;-67
2021/08/10 05:18:37;;;;;;;6.65;6.25;;;;;;;16.36;89.33;101236.44;4430047;32;20083;-67
2021/08/10 05:21:02;;;;;;;4.95;4.75;;;;;;;16.57;87.59;101212.91;4420304;32;20064;-67
2021/08/10 05:23:27;;;;;;;5.40;5.10;;;;;;;16.63;82.76;101214.31;4420813;32;21029;-67
2021/08/10 05:25:53;;;;;;;5.65;5.45;;;;;;;16.83;82.45;101162.56;4423300;32;20078;-67
2021/08/10 05:28:18;;;;;;;5.25;5.05;;;;;;;17.55;80.54;101255.53;4427740;32;20067;-68
2021/08/10 05:30:44;;;;;;;6.68;6.37;;;;;;;17.72;79.62;101254.28;4441428;32;20133;-67
2021/08/10 05:33:09;;;;;;;5.00;4.80;;;;;;;17.93;78.55;101259.84;4415907;32;20082;-67
2021/08/10 05:35:34;;;;;;;6.47;6.18;;;;;;;18.09;77.00;101259.56;4430291;32;20067;-68
2021/08/10 05:38:00;;;;;;;5.25;5.05;;;;;;;17.99;75.68;101254.09;4424071;32;21437;-67
2021/08/10 05:40:25;;;;;;;5.50;5.10;;;;;;;18.33;76.21;101247.06;4435491;32;20067;-67
2021/08/10 05:42:50;;;;;;;6.32;5.97;;;;;;;18.52;76.09;101249.19;4433617;32;20517;-67
2021/08/10 05:45:16;;;;;;;5.07;4.87;;;;;;;18.73;74.77;101249.31;4430724;32;20122;-67
2021/08/10 05:47:41;;;;;;;8.88;7.05;;;;;;;18.85;73.33;101260.00;4428700;32;20084;-67
2021/08/10 05:50:07;;;;;;;5.30;5.10;;;;;;;18.31;73.91;101250.81;4423771;32;20210;-67
2021/08/10 05:52:32;;;;;;;5.47;5.25;;;;;;;18.78;73.17;101240.13;4432991;32;20129;-67
2021/08/10 05:54:58;;;;;;;5.55;5.25;;;;;;;18.81;73.38;101219.50;4422377;32;20087;-67
2021/08/10 05:57:23;;;;;;;5.50;5.20;;;;;;;18.97;72.48;101236.91;4434895;32;20593;-67
2021/08/10 05:59:49;;;;;;;6.40;6.10;;;;;;;19.35;72.06;101241.84;4421945;32;20442;-67
2021/08/10 06:02:14;;;;;;;6.43;6.12;;;;;;;19.66;71.19;101247.31;4425603;32;20083;-68
2021/08/10 06:04:39;;;;;;;6.60;6.30;;;;;;;19.61;70.64;101222.91;4425986;32;20576;-67
2021/08/10 06:07:06;;;;;;;5.53;5.22;;;;;;;19.05;71.85;101237.16;4435849;32;20157;-67
2021/08/10 06:09:32;;;;;;;5.55;5.32;;;;;;;18.87;72.83;101232.31;4436448;32;20072;-68
2021/08/10 06:11:57;;;;;;;5.60;5.40;;;;;;;18.79;73.72;101245.38;4419068;32;20095;-67
2021/08/10 06:14:23;;;;;;;5.32;5.10;;;;;;;18.26;74.72;101232.59;4433277;32;20076;-67
2021/08/10 06:16:48;;;;;;;5.72;5.30;;;;;;;17.93;77.09;101236.78;4426260;32;20118;-67
2021/08/10 06:19:13;;;;;;;5.22;5.03;;;;;;;17.60;78.53;101242.78;4428495;32;20091;-68
2021/08/10 06:21:39;;;;;;;6.78;6.47;;;;;;;17.40;80.57;101243.34;4426568;32;20176;-68
2021/08/10 06:24:04;;;;;;;5.10;4.90;;;;;;;16.36;79.14;101048.38;4417257;32;20072;-68
2021/08/10 06:26:30;;;;;;;5.50;5.20;;;;;;;17.62;79.39;101240.84;4438817;32;20198;-69
2021/08/10 06:28:55;;;;;;;5.40;5.20;;;;;;;17.75;78.91;101248.75;4413398;32;21696;-68
2021/08/10 06:31:21;;;;;;;5.40;5.20;;;;;;;17.85;79.03;101241.00;4440266;32;20076;-68
2021/08/10 06:33:46;;;;;;;7.57;7.20;;;;;;;18.29;77.76;101237.66;4424270;32;20542;-68
2021/08/10 06:36:12;;;;;;;5.20;5.00;;;;;;;18.12;78.71;101236.28;4438042;32;20083;-68
2021/08/10 06:38:37;;;;;;;5.20;5.00;;;;;;;18.41;77.97;101232.38;4427469;32;20084;-72
2021/08/10 06:41:03;;;;;;;5.72;5.40;;;;;;;18.37;78.68;101238.88;4436214;32;20076;-69
2021/08/10 06:43:28;;;;;;;5.07;4.87;;;;;;;18.34;78.16;101219.56;4438417;32;20091;-72
2021/08/10 06:45:53;;;;;;;6.43;6.12;;;;;;;18.30;77.87;101236.69;4433273;32;20087;-71
2021/08/10 06:48:19;;;;;;;5.30;5.10;;;;;;;18.34;77.73;101240.81;4431522;32;20075;-75
2021/08/10 06:50:44;;;;;;;7.10;6.80;;;;;;;18.50;77.76;101237.81;4432668;32;20072;-73
2021/08/10 06:53:09;;;;;;;5.50;5.20;;;;;;;18.37;77.24;101191.88;4423023;32;21045;-70
2021/08/10 06:55:35;;;;;;;6.12;5.82;;;;;;;19.08;75.52;101227.13;4423676;32;20083;-69
2021/08/10 06:58:00;;;;;;;5.70;5.40;;;;;;;19.02;75.60;101232.06;4428729;32;20099;-68
2021/08/10 07:00:26;;;;;;;5.65;5.35;;;;;;;19.01;75.34;101235.72;4422811;32;20087;-69
2021/08/10 07:02:51;;;;;;;5.53;5.22;;;;;;;19.17;74.97;101233.50;4421200;32;20068;-72
2021/08/10 07:05:17;;;;;;;5.25;5.05;;;;;;;18.56;74.30;101148.75;4419781;32;20076;-71
2021/08/10 07:07:42;;;;;;;6.90;6.60;;;;;;;19.26;74.81;101242.56;4432060;32;20088;-71
2021/08/10 07:10:08;;;;;;;5.22;5.03;;;;;;;19.40;74.14;101260.09;4431095;32;20064;-72
2021/08/10 07:12:33;;;;;;;5.40;5.20;;;;;;;19.13;73.46;101203.63;4438378;32;20546;-69
2021/08/10 07:14:59;;;;;;;5.20;5.00;;;;;;;19.65;72.79;101254.47;4411514;32;20157;-69
2021/08/10 07:17:24;;;;;;;5.50;5.30;;;;;;;19.71;72.90;101248.66;4413687;32;20075;-69
2021/08/10 07:19:49;;;;;;;6.65;6.35;;;;;;;19.68;73.30;101251.53;4416754;32;20218;-71
2021/08/10 07:22:15;;;;;;;5.50;5.00;;;;;;;19.75;72.00;101243.94;4431526;32;20068;-69
2021/08/10 07:24:40;;;;;;;6.85;6.55;;;;;;;19.61;72.08;101252.19;4428651;32;20529;-69
2021/08/10 07:27:06;;;;;;;5.55;5.25;;;;;;;19.33;74.23;101246.44;4417041;32;20830;-72
2021/08/10 07:29:31;;;;;;;5.20;5.00;;;;;;;19.71;73.16;101248.66;4418542;32;20073;-68
2021/08/10 07:31:56;;;;;;;5.43;5.22;;;;;;;19.60;72.66;101242.50;4444728;32;20096;-69
2021/08/10 07:34:22;;;;;;;5.75;5.30;;;;;;;19.64;73.85;101239.44;4422045;32;20679;-71
2021/08/10 07:36:47;;;;;;;7.10;6.78;;;;;;;19.58;72.42;101241.78;4424024;32;20091;-69
2021/08/10 07:39:12;;;;;;;5.22;5.03;;;;;;;19.38;72.73;101254.03;4432202;32;20064;-69
2021/08/10 07:41:38;;;;;;;5.20;5.00;;;;;;;19.53;73.37;101252.81;4439574;32;20072;-69
2021/08/10 07:44:03;;;;;;;5.78;5.47;;;;;;;19.60;73.37;101255.81;4420461;32;20583;-69
2021/08/10 07:46:29;;;;;;;5.82;5.53;;;;;;;19.57;74.61;101262.25;4416079;32;20072;-70
2021/08/10 07:48:54;;;;;;;6.00;5.70;;;;;;;19.52;73.51;101236.00;4409813;32;20072;-69
2021/08/10 07:51:19;;;;;;;5.68;5.37;;;;;;;20.10;73.40;101253.47;4421396;32;20086;-71
2021/08/10 07:53:45;;;;;;;6.90;6.60;;;;;;;20.17;72.74;101260.00;4434368;32;20069;-71
2021/08/10 07:56:13;;;;;;;5.40;5.20;;;;;;;20.19;72.34;101255.38;4429167;32;20126;-72
2021/08/10 07:58:39;;;;;;;7.35;6.95;;;;;;;19.78;72.12;101166.44;4416980;32;20079;-73
2021/08/10 08:01:05;;;;;;;5.62;5.32;;;;;;;20.37;71.39;101252.97;4413410;32;20969;-71
2021/08/10 08:03:31;;;;;;;5.87;5.57;;;;;;;20.26;70.55;101256.53;4414381;32;20088;-70
2021/08/10 08:05:56;;;;;;;6.30;6.00;;;;;;;20.33;71.47;101263.06;4403735;32;20762;-71
2021/08/10 08:08:22;;;;;;;5.80;5.50;;;;;;;20.06;72.93;101234.22;4404347;32;20088;-72
2021/08/10 08:10:47;;;;;;;5.47;5.28;;;;;;;20.37;71.46;101250.31;4420078;32;20679;-71
2021/08/10 08:13:13;;;;;;;5.40;5.20;;;;;;;20.39;70.97;101244.88;4432080;32;20161;-70
2021/08/10 08:15:38;;;;;;;7.32;6.97;;;;;;;20.17;71.23;101246.69;4432276;32;20077;-70
2021/08/10 08:18:04;;;;;;;5.50;5.28;;;;;;;20.67;70.41;101246.87;4424457;32;20084;-71
2021/08/10 08:20:29;;;;;;;5.50;5.20;;;;;;;20.80;67.25;101245.81;4423325;32;20076;-71
2021/08/10 08:22:54;;;;;;;5.50;5.30;;;;;;;20.51;67.74;101202.00;4422890;32;20064;-72
2021/08/10 08:25:20;;;;;;;5.65;5.35;;;;;;;21.24;67.45;101243.72;4431063;32;20064;-70
2021/08/10 08:27:45;;;;;;;6.60;6.30;;;;;;;21.30;66.34;101246.69;4420003;32;20093;-70
2021/08/10 08:30:11;;;;;;;6.03;5.72;;;;;;;21.40;66.75;101238.69;4434579;32;20087;-69
2021/08/10 08:32:37;;;;;;;6.55;6.25;;;;;;;21.29;66.73;101246.84;4415698;32;20080;-69
2021/08/10 08:35:02;;;;;;;6.10;5.80;;;;;;;21.35;67.05;101237.41;4430875;32;20110;-69
2021/08/10 08:37:28;;;;;;;5.40;5.20;;;;;;;21.49;66.66;101239.75;4398803;32;20077;-69
2021/08/10 08:39:53;;;;;;;5.90;5.60;;;;;;;21.54;65.40;101239.34;4427465;32;20088;-69
2021/08/10 08:42:19;;;;;;;5.50;5.30;;;;;;;21.41;65.54;101154.97;4437926;32;20084;-70
2021/08/10 08:44:44;;;;;;;7.30;7.00;;;;;;;21.77;67.13;101242.56;4415046;32;20079;-68
2021/08/10 08:47:09;;;;;;;8.93;5.60;;;;;;;21.85;64.40;101240.03;4423758;32;20111;-65
2021/08/10 08:49:36;;;;;;;6.22;5.93;;;;;;;21.81;64.25;101252.88;4428633;32;20925;-69
2021/08/10 08:52:03;;;;;;;5.55;5.25;;;;;;;22.09;65.70;101250.31;4402330;32;20096;-65
2021/08/10 08:54:29;;;;;;;5.50;5.20;;;;;;;22.31;63.68;101246.50;4405562;32;20076;-64
2021/08/10 08:56:55;;;;;;;6.18;5.87;;;;;;;22.69;64.12;101256.31;4397259;32;20170;-70
2021/08/10 08:59:21;;;;;;;5.80;5.50;;;;;;;22.96;63.32;101257.31;4401696;32;20872;-70
2021/08/10 09:01:48;;;;;;;5.70;5.40;;;;;;;22.75;62.15;101260.22;4424036;32;20068;-69
2021/08/10 09:04:13;;;;;;;5.90;5.60;;;;;;;22.09;63.14;101226.25;4407999;32;20428;-70
2021/08/10 09:06:39;;;;;;;5.37;5.18;;;;;;;22.17;62.78;101250.47;4418294;32;20091;-70
2021/08/10 09:09:24;;;;;;;5.30;5.10;;;;;;;21.78;64.20;101262.97;4407758;32;20664;-69
2021/08/10 09:11:58;;;;;;;6.80;6.50;;;;;;;21.39;63.64;101254.84;4415174;32;20436;-69
2021/08/10 09:14:24;;;;;;;5.57;5.30;;;;;;;21.44;64.09;101252.66;4430444;32;20080;-70
2021/08/10 09:17:06;;;;;;;5.20;5.00;;;;;;;21.31;64.82;101247.56;4406641;32;20084;-65
2021/08/10 09:20:02;;;;;;;6.28;5.97;;;;;;;21.31;65.65;101245.72;4407211;32;20083;-66
2021/08/10 09:22:29;;;;;;;5.40;5.20;;;;;;;21.21;65.17;101252.00;4416298;32;20068;-66
2021/08/10 09:25:02;;;;;;;6.28;5.93;;;;;;;20.79;64.04;101140.06;4417963;32;20472;-66
2021/08/10 09:27:34;;;;;;;5.12;4.93;;;;;;;21.61;64.54;101232.44;4420946;32;20096;-66
2021/08/10 09:30:00;;;;;;;6.22;5.95;;;;;;;21.43;64.22;101235.81;4413588;32;20279;-71
2021/08/10 09:32:25;;;;;;;5.30;5.10;;;;;;;21.82;64.77;101225.16;4411110;32;20073;-71
2021/08/10 09:35:17;;;;;;;5.35;5.15;;;;;;;22.23;62.69;101228.50;4410725;32;20064;-70
2021/08/10 09:37:43;;;;;;;7.28;6.90;;;;;;;22.55;63.30;101189.03;4414983;32;20609;-69
2021/08/10 09:40:25;;;;;;;5.93;5.60;;;;;;;22.80;61.92;101190.22;4404882;32;20114;-70
2021/08/10 09:42:50;;;;;;;5.47;5.22;;;;;;;23.36;60.34;101224.03;4420605;32;20064;-69
2021/08/10 09:45:15;;;;;;;5.60;5.30;;;;;;;23.79;57.67;101218.94;4420818;32;20087;-71
2021/08/10 09:47:41;;;;;;;6.57;6.28;;;;;;;24.10;57.77;101222.06;4413518;32;20075;-71
2021/08/10 09:50:26;;;;;;;6.00;5.70;;;;;;;24.18;59.08;101227.50;4441851;32;20151;-72
2021/08/10 09:52:52;;;;;;;6.53;6.22;;;;;;;24.19;55.85;101222.97;4431235;32;20155;-72
2021/08/10 09:55:17;;;;;;;5.90;5.60;;;;;;;23.98;57.54;101228.69;4425047;32;20091;-70
2021/08/10 09:58:01;;;;;;;5.60;5.30;;;;;;;23.63;58.86;101231.19;4420948;32;20087;-71
2021/08/10 10:00:36;;;;;;;5.90;5.60;;;;;;;23.54;57.96;101183.03;4422289;32;20079;-71
2021/08/10 10:03:24;;;;;;;5.30;5.10;;;;;;;23.62;58.47;101228.66;4436844;32;21480;-71
2021/08/10 10:05:49;;;;;;;5.60;5.40;;;;;;;24.04;57.17;101222.69;4431448;32;20067;-71
2021/08/10 10:08:18;;;;;;;6.20;5.70;;;;;;;24.14;57.30;101220.75;4434872;32;20078;-70
2021/08/10 10:10:44;;;;;;;7.87;7.40;;;;;;;24.36;57.84;101223.94;4442423;32;20072;-71
2021/08/10 10:13:11;;;;;;;6.15;5.85;;;;;;;24.35;54.79;101206.16;4441619;32;20864;-69
2021/08/10 10:15:36;;;;;;;6.53;6.05;;;;;;;23.91;55.43;101161.41;4418091;32;20125;-69
2021/08/10 10:18:02;;;;;;;6.12;5.82;;;;;;;24.52;54.97;101220.56;4422644;32;20060;-69
2021/08/10 10:20:27;;;;;;;5.82;5.53;;;;;;;24.04;53.94;101209.28;4440909;32;20673;-69
2021/08/10 10:22:52;;;;;;;6.97;6.57;;;;;;;23.79;56.16;101186.78;4425370;32;20134;-72
2021/08/10 10:25:18;;;;;;;5.87;5.57;;;;;;;23.68;55.78;101214.66;4444172;32;20087;-72
2021/08/10 10:27:43;;;;;;;7.50;6.97;;;;;;;23.62;55.84;101194.66;4423437;32;20075;-72
2021/08/10 10:30:09;;;;;;;5.78;5.47;;;;;;;23.86;55.38;101199.44;4430724;32;20136;-68
2021/08/10 10:32:35;;;;;;;5.57;5.37;;;;;;;23.65;55.54;101226.53;4437216;32;20586;-69
2021/08/10 10:35:00;;;;;;;5.70;5.50;;;;;;;22.93;56.18;101209.44;4420725;32;20096;-69
2021/08/10 10:37:27;;;;;;;5.22;5.03;;;;;;;22.85;57.65;101222.72;4429979;32;20079;-69
2021/08/10 10:40:03;;;;;;;6.35;6.05;;;;;;;23.15;57.19;101218.09;4425329;32;20110;-69
2021/08/10 10:42:28;;;;;;;6.22;5.82;;;;;;;23.04;56.93;101221.81;4439576;32;20068;-69
2021/08/10 10:44:53;;;;;;;6.00;5.70;;;;;;;23.24;57.16;101217.22;4427927;32;20684;-69
2021/08/10 10:47:25;;;;;;;5.80;5.50;;;;;;;22.96;56.53;101222.53;4438090;32;20107;-68
2021/08/10 10:49:56;;;;;;;6.40;6.10;;;;;;;23.30;57.27;101224.63;4452340;32;20649;-69
2021/08/10 10:52:22;;;;;;;5.50;5.20;;;;;;;23.94;55.84;101221.94;4447980;32;20078;-71
2021/08/10 10:54:48;;;;;;;7.47;7.07;;;;;;;23.93;53.01;101213.03;4420348;32;20090;-69
2021/08/10 10:57:28;;;;;;;6.00;5.70;;;;;;;23.96;53.73;101225.31;4436954;32;20068;-70
2021/08/10 10:59:55;;;;;;;6.40;6.10;;;;;;;24.18;52.93;101221.31;4445514;32;20072;-70
2021/08/10 11:02:25;;;;;;;6.00;5.70;;;;;;;24.12;53.32;101217.41;4433117;32;20080;-70
2021/08/10 11:05:06;;;;;;;5.60;5.30;;;;;;;24.32;51.78;101222.56;4435631;32;20133;-70
2021/08/10 11:07:38;;;;;;;5.50;5.30;;;;;;;24.21;52.28;101224.47;4447699;32;20087;-70
2021/08/10 11:10:35;;;;;;;5.62;5.43;;;;;;;23.92;53.43;101215.91;4446217;32;20446;-69
2021/08/10 11:13:00;;;;;;;5.60;5.30;;;;;;;24.06;52.54;101215.34;4433318;32;20068;-69
2021/08/10 11:15:44;;;;;;;5.78;5.47;;;;;;;24.95;53.99;101213.37;4422951;32;20079;-69
2021/08/10 11:18:09;;;;;;;5.80;5.50;;;;;;;25.38;50.39;101211.50;4432667;32;20092;-69
2021/08/10 11:20:41;;;;;;;6.57;6.28;;;;;;;24.78;52.58;101188.31;4443397;32;20341;-69
2021/08/10 11:23:20;;;;;;;5.80;5.50;;;;;;;25.28;51.40;101203.63;4429558;32;20084;-70
2021/08/10 11:25:49;;;;;;;6.95;6.65;;;;;;;25.12;49.29;101208.88;4447763;32;20509;-67